Time;durP1;ratioP1;P1;durP2;ratioP2;P2;SDS_P1;SDS_P2;PMS_P1;PMS_P2;Temp;Humidity;BMP_temperature;BMP_pressure;BME280_temperature;BME280_humidity;BME280_pressure;Samples;Min_cycle;Max_cycle;Signal;HPM_P1;HPM_P2
2022/12/10 00:02:00;;;;;;;;;;;;;;;5.49;63.90;94011.75;5052567;28;20013;-71
2022/12/10 00:04:26;;;;;;;;;;;;;;;5.41;63.53;94025.63;5032980;28;20035;-71
2022/12/10 00:06:51;;;;;;;;;;;;;;;5.43;63.53;94023.50;5052486;28;20469;-70
2022/12/10 00:09:17;;;;;;;;;;;;;;;4.99;65.07;94013.63;5048891;28;20014;-71
2022/12/10 00:11:43;;;;;;;;;;;;;;;4.52;66.62;94016.41;5051738;28;20009;-70
2022/12/10 00:14:09;;;;;;;;;;;;;;;5.24;65.38;94010.47;5085747;22;20370;-67
2022/12/10 00:16:34;;;;;;;;;;;;;;;4.63;65.31;93922.97;5086489;28;20012;-64
2022/12/10 00:19:00;;;;;;;;;;;;;;;5.21;64.42;94013.69;5074627;28;20013;-65
2022/12/10 00:21:27;;;;;;;;;;;;;;;5.51;64.67;94009.59;5070779;28;20462;-65
2022/12/10 00:23:52;;;;;;;;;;;;;;;5.94;64.02;93998.59;5065858;28;20017;-67
2022/12/10 00:26:20;;;;;;;;;;;;;;;4.62;65.76;94000.41;5051278;28;20549;-65
2022/12/10 00:28:45;;;;;;;;;;;;;;;4.71;66.48;94003.16;5054429;28;20028;-65
2022/12/10 00:31:12;;;;;;;;;;;;;;;4.37;67.57;94000.91;5057092;28;20464;-65
2022/12/10 00:33:38;;;;;;;;;;;;;;;4.43;67.81;94005.00;5052815;28;20056;-66
2022/12/10 00:36:04;;;;;;;;;;;;;;;4.90;66.45;94010.91;5047228;28;20053;-66
2022/12/10 00:38:30;;;;;;;;;;;;;;;4.88;66.35;94008.59;5046811;28;20064;-65
2022/12/10 00:40:55;;;;;;;;;;;;;;;5.37;65.80;94004.34;5047408;28;20057;-66
2022/12/10 00:43:20;;;;;;;;;;;;;;;5.69;64.86;94003.38;5056437;28;20505;-65
2022/12/10 00:45:45;;;;;;;;;;;;;;;5.89;63.76;94002.09;5053694;28;20010;-66
2022/12/10 00:48:11;;;;;;;;;;;;;;;6.10;63.30;94007.66;5056817;28;20028;-65
2022/12/10 00:50:36;;;;;;;;;;;;;;;6.03;63.49;94007.31;5069321;28;20732;-65
2022/12/10 00:53:01;;;;;;;;;;;;;;;5.37;64.14;94016.75;5062705;28;20075;-66
2022/12/10 00:55:26;;;;;;;;;;;;;;;5.06;64.99;94009.50;5056993;28;20017;-65
2022/12/10 00:57:51;;;;;;;;;;;;;;;5.31;65.08;94028.50;5050424;28;20020;-66
2022/12/10 01:00:17;;;;;;;;;;;;;;;5.53;64.50;94028.53;5054477;28;20075;-66
2022/12/10 01:02:42;;;;;;;;;;;;;;;5.04;65.07;94039.88;5048791;28;20013;-66
2022/12/10 01:05:07;;;;;;;;;;;;;;;5.21;65.54;94034.78;5067202;28;20013;-65
2022/12/10 01:07:32;;;;;;;;;;;;;;;4.99;65.83;94040.78;5066191;28;20122;-66
2022/12/10 01:09:58;;;;;;;;;;;;;;;5.31;64.74;94042.47;5058094;28;20017;-65
2022/12/10 01:12:23;;;;;;;;;;;;;;;5.34;64.75;94038.47;5064794;28;20013;-65
2022/12/10 01:14:48;;;;;;;;;;;;;;;4.99;65.13;94034.72;5069808;28;20023;-65
2022/12/10 01:17:13;;;;;;;;;;;;;;;4.69;66.14;94037.66;5051631;28;20040;-65
2022/12/10 01:19:38;;;;;;;;;;;;;;;4.63;66.68;94033.56;5056793;28;20017;-65
2022/12/10 01:22:04;;;;;;;;;;;;;;;5.12;66.14;94033.94;5049046;28;20532;-65
2022/12/10 01:24:29;;;;;;;;;;;;;;;4.62;67.35;94029.38;5043646;28;20013;-65
2022/12/10 01:26:55;;;;;;;;;;;;;;;4.47;67.79;94034.16;5052833;28;20060;-66
2022/12/10 01:29:20;;;;;;;;;;;;;;;4.85;67.74;94026.81;5045586;28;20041;-66
2022/12/10 01:31:49;;;;;;;;;;;;;;;4.89;67.23;94030.44;5051304;28;20057;-66
2022/12/10 01:34:15;;;;;;;;;;;;;;;4.43;68.04;94037.38;5035435;28;20100;-66
2022/12/10 01:36:41;;;;;;;;;;;;;;;4.72;68.13;94038.94;5050899;28;20508;-66
2022/12/10 01:39:08;;;;;;;;;;;;;;;4.72;68.07;94046.06;5050476;28;20051;-67
2022/12/10 01:41:38;;;;;;;;;;;;;;;4.31;69.25;94038.94;5061152;28;20426;-66
2022/12/10 01:44:23;;;;;;;;;;;;;;;4.72;68.56;94043.44;5069788;28;20071;-66
2022/12/10 01:46:51;;;;;;;;;;;;;;;3.94;69.67;94047.72;5068446;28;20024;-67
2022/12/10 01:49:18;;;;;;;;;;;;;;;3.97;70.16;94052.41;5064550;28;20045;-67
2022/12/10 01:51:44;;;;;;;;;;;;;;;4.18;69.93;94053.63;5038822;28;20018;-67
2022/12/10 01:54:12;;;;;;;;;;;;;;;3.79;70.71;94057.44;5050809;28;20021;-66
2022/12/10 01:56:43;;;;;;;;;;;;;;;4.03;70.35;94059.16;5049676;28;20026;-67
2022/12/10 01:59:09;;;;;;;;;;;;;;;4.08;70.32;94051.16;5060465;28;20013;-66
2022/12/10 02:01:43;;;;;;;;;;;;;;;4.00;70.40;94057.09;5051828;28;20022;-66
2022/12/10 02:04:15;;;;;;;;;;;;;;;4.00;70.97;94067.63;5050382;28;20103;-67
2022/12/10 02:06:55;;;;;;;;;;;;;;;3.97;70.45;94062.94;5049869;28;20496;-66
2022/12/10 02:09:25;;;;;;;;;;;;;;;4.27;69.46;94062.41;5052955;28;20023;-66
2022/12/10 02:11:50;;;;;;;;;;;;;;;4.20;70.69;94050.69;5051854;28;20091;-66
2022/12/10 02:14:20;;;;;;;;;;;;;;;4.57;69.59;94053.19;5049779;28;20500;-67
2022/12/10 02:16:54;;;;;;;;;;;;;;;5.02;68.52;94060.50;5064314;28;20650;-66
2022/12/10 02:19:39;;;;;;;;;;;;;;;5.27;68.86;94059.16;5067603;28;20020;-66
2022/12/10 02:22:05;;;;;;;;;;;;;;;5.34;68.82;94057.69;5051974;28;20070;-66
2022/12/10 02:24:33;;;;;;;;;;;;;;;5.61;68.66;94062.09;5062814;28;20520;-67
2022/12/10 02:27:03;;;;;;;;;;;;;;;5.80;68.78;94059.31;5055100;28;20078;-66
2022/12/10 02:29:30;;;;;;;;;;;;;;;5.81;68.46;94055.59;5063963;28;20013;-67
2022/12/10 02:31:59;;;;;;;;;;;;;;;5.04;67.17;94056.47;5058738;28;20127;-67
2022/12/10 02:34:27;;;;;;;;;;;;;;;5.36;67.75;94049.47;5067094;28;20048;-67
2022/12/10 02:36:53;;;;;;;;;;;;;;;4.33;68.09;94047.31;5062854;28;20036;-67
2022/12/10 02:39:22;;;;;;;;;;;;;;;4.71;68.07;94045.31;5050830;28;20025;-66
2022/12/10 02:41:49;;;;;;;;;;;;;;;4.62;68.96;94041.78;5068660;28;20020;-66
2022/12/10 02:44:16;;;;;;;;;;;;;;;4.51;67.87;94041.19;5064961;28;20020;-66
2022/12/10 02:46:42;;;;;;;;;;;;;;;5.08;68.25;94048.78;5065628;28;20021;-67
2022/12/10 02:49:08;;;;;;;;;;;;;;;5.35;67.96;94030.25;5066124;28;20021;-67
2022/12/10 02:51:34;;;;;;;;;;;;;;;5.54;68.35;94032.72;5064156;28;20021;-66
2022/12/10 02:54:00;;;;;;;;;;;;;;;5.58;67.81;94036.34;5065607;28;20013;-66
2022/12/10 02:56:37;;;;;;;;;;;;;;;5.71;67.40;94032.84;5067274;28;20023;-67
2022/12/10 02:59:19;;;;;;;;;;;;;;;5.65;67.30;94031.41;5053446;28;20017;-66
2022/12/10 03:02:10;;;;;;;;;;;;;;;5.61;67.45;94034.94;5047265;28;20022;-66
2022/12/10 03:04:36;;;;;;;;;;;;;;;5.76;67.77;94025.91;5041538;28;20021;-67
2022/12/10 03:07:05;;;;;;;;;;;;;;;5.94;67.28;94023.13;5064186;28;20112;-66
2022/12/10 03:09:47;;;;;;;;;;;;;;;5.80;67.01;94024.22;5050487;28;20017;-66
2022/12/10 03:12:25;;;;;;;;;;;;;;;5.86;67.05;94023.03;5073122;28;20532;-67
2022/12/10 03:14:52;;;;;;;;;;;;;;;5.86;66.16;94015.09;5057150;28;20021;-67
2022/12/10 03:17:18;;;;;;;;;;;;;;;5.83;66.80;94020.97;5067864;28;20495;-67
2022/12/10 03:19:45;;;;;;;;;;;;;;;5.80;66.58;94017.09;5053289;28;20017;-66
2022/12/10 03:22:12;;;;;;;;;;;;;;;5.92;66.69;94013.91;5070921;28;20013;-67
2022/12/10 03:24:39;;;;;;;;;;;;;;;5.98;66.44;94016.13;5054415;28;20017;-67
2022/12/10 03:27:06;;;;;;;;;;;;;;;5.98;66.05;94018.75;5072788;28;20013;-67
2022/12/10 03:29:35;;;;;;;;;;;;;;;6.03;65.29;94014.44;5065650;28;20013;-67
2022/12/10 03:32:01;;;;;;;;;;;;;;;5.94;65.55;94012.56;5064046;28;20512;-66
2022/12/10 03:34:28;;;;;;;;;;;;;;;5.92;65.27;94006.78;5068231;28;20473;-67
2022/12/10 03:36:53;;;;;;;;;;;;;;;5.95;65.48;94006.19;5072923;28;20063;-66
2022/12/10 03:39:18;;;;;;;;;;;;;;;6.06;65.36;94006.72;5054215;28;20056;-67
2022/12/10 03:41:43;;;;;;;;;;;;;;;6.11;65.74;94016.38;5069928;28;20385;-67
2022/12/10 03:44:09;;;;;;;;;;;;;;;6.13;65.41;94008.91;5068517;28;20058;-67
2022/12/10 03:46:34;;;;;;;;;;;;;;;6.02;64.26;94008.41;5067554;28;20024;-67
2022/12/10 03:49:00;;;;;;;;;;;;;;;5.93;64.10;94010.97;5070529;28;20070;-67
2022/12/10 03:51:25;;;;;;;;;;;;;;;5.98;64.19;94012.72;5050172;28;20071;-67
2022/12/10 03:53:51;;;;;;;;;;;;;;;6.06;64.30;94009.34;5053395;28;20021;-66
2022/12/10 03:56:17;;;;;;;;;;;;;;;5.89;64.39;94006.59;5067897;28;20013;-67
2022/12/10 03:58:42;;;;;;;;;;;;;;;5.89;64.58;94004.72;5062017;28;20070;-66
2022/12/10 04:01:07;;;;;;;;;;;;;;;5.62;64.27;94010.91;5068288;28;20013;-67
2022/12/10 04:03:36;;;;;;;;;;;;;;;5.77;64.42;94006.34;5065950;28;20019;-66
2022/12/10 04:06:03;;;;;;;;;;;;;;;5.83;63.71;94023.59;5071094;28;20111;-67
2022/12/10 04:08:28;;;;;;;;;;;;;;;5.92;64.59;94024.47;5069860;28;20035;-67
2022/12/10 04:10:53;;;;;;;;;;;;;;;6.14;64.31;94026.31;5056882;28;20021;-66
2022/12/10 04:18:46;;;;;;;;;;;;;;;5.74;63.81;94034.91;5051083;28;20021;-66
2022/12/10 04:26:55;;;;;;;;;;;;;;;5.94;62.72;94023.13;5068748;28;20436;-65
2022/12/10 04:29:21;;;;;;;;;;;;;;;5.86;62.94;94023.03;5052813;28;20017;-66
2022/12/10 04:31:47;;;;;;;;;;;;;;;5.92;62.90;94035.81;5049960;28;20031;-66
2022/12/10 04:34:12;;;;;;;;;;;;;;;5.99;63.49;94038.03;5061321;28;20373;-65
2022/12/10 04:36:37;;;;;;;;;;;;;;;6.12;63.54;94031.91;5068836;28;20439;-66
2022/12/10 04:39:02;;;;;;;;;;;;;;;6.19;63.01;94029.63;5055761;28;20014;-66
2022/12/10 04:41:28;;;;;;;;;;;;;;;6.18;62.68;94040.47;5052322;28;20802;-66
2022/12/10 04:43:53;;;;;;;;;;;;;;;6.08;62.19;94043.34;5059228;28;20517;-66
2022/12/10 04:46:18;;;;;;;;;;;;;;;6.18;63.60;94043.88;5058628;28;20057;-67
2022/12/10 04:48:43;;;;;;;;;;;;;;;6.27;63.52;94048.44;5051636;28;20135;-66
2022/12/10 04:51:09;;;;;;;;;;;;;;;6.10;63.42;94042.00;5064123;28;20067;-66
2022/12/10 04:53:34;;;;;;;;;;;;;;;6.24;63.90;94033.97;5068031;28;20017;-66
2022/12/10 04:56:00;;;;;;;;;;;;;;;6.30;63.57;94026.72;5055601;28;20381;-64
2022/12/10 04:58:30;;;;;;;;;;;;;;;6.27;62.33;94025.44;5056306;28;20009;-65
2022/12/10 05:01:00;;;;;;;;;;;;;;;6.26;62.68;94031.81;5056405;28;20014;-65
2022/12/10 05:03:25;;;;;;;;;;;;;;;6.14;62.51;94035.03;5061723;28;20014;-65
2022/12/10 05:05:50;;;;;;;;;;;;;;;6.22;62.99;94030.88;5050775;28;20017;-65
2022/12/10 05:08:15;;;;;;;;;;;;;;;6.38;63.87;94033.88;5056943;28;20018;-65
2022/12/10 05:10:41;;;;;;;;;;;;;;;5.74;61.69;93971.56;5067503;28;20017;-65
2022/12/10 05:13:06;;;;;;;;;;;;;;;6.35;62.39;94032.66;5068441;28;20113;-65
2022/12/10 05:15:31;;;;;;;;;;;;;;;6.28;62.25;94034.16;5063833;28;20013;-65
2022/12/10 05:17:56;;;;;;;;;;;;;;;6.22;63.60;94030.88;5049704;28;20037;-65
2022/12/10 05:20:22;;;;;;;;;;;;;;;6.32;62.42;94021.91;5058398;28;20083;-65
2022/12/10 05:25:30;;;;;;;;;;;;;;;6.14;62.19;94018.38;5069189;28;20036;-64
2022/12/10 05:27:56;;;;;;;;;;;;;;;6.03;62.39;94014.44;5065632;28;20020;-65
2022/12/10 05:30:21;;;;;;;;;;;;;;;5.95;63.05;94019.38;5063811;28;21985;-65
2022/12/10 05:32:46;;;;;;;;;;;;;;;6.14;63.46;94019.19;5066228;28;20017;-65
2022/12/10 05:35:11;;;;;;;;;;;;;;;6.18;62.37;94028.03;5056278;28;20082;-65
2022/12/10 05:37:37;;;;;;;;;;;;;;;6.35;63.67;94035.28;5049056;28;20014;-65
2022/12/10 05:40:02;;;;;;;;;;;;;;;6.49;63.83;94037.81;5048465;28;20024;-65
2022/12/10 05:42:28;;;;;;;;;;;;;;;6.50;63.56;94040.19;5048133;28;20020;-65
2022/12/10 05:44:53;;;;;;;;;;;;;;;6.24;61.85;94041.88;5064071;28;20024;-65
2022/12/10 05:47:18;;;;;;;;;;;;;;;6.21;62.86;94039.88;5063458;28;20013;-65
2022/12/10 05:49:43;;;;;;;;;;;;;;;6.36;62.79;94038.72;5060951;28;20073;-66
2022/12/10 05:52:08;;;;;;;;;;;;;;;6.36;62.63;94033.44;5068294;28;20016;-66
2022/12/10 05:54:34;;;;;;;;;;;;;;;6.43;62.20;94036.41;5064345;28;20025;-65
2022/12/10 05:56:59;;;;;;;;;;;;;;;6.46;62.84;94038.44;5064604;28;20017;-66
2022/12/10 05:59:24;;;;;;;;;;;;;;;6.47;62.71;94047.91;5048885;28;20040;-66
2022/12/10 06:01:49;;;;;;;;;;;;;;;6.53;62.81;94048.56;5053166;28;20358;-65
2022/12/10 06:04:15;;;;;;;;;;;;;;;6.41;62.79;94055.19;5055407;28;20067;-65
2022/12/10 06:06:40;;;;;;;;;;;;;;;5.52;62.86;94060.47;5049028;28;20018;-64
2022/12/10 06:09:06;;;;;;;;;;;;;;;6.14;63.93;94053.50;5048316;28;20022;-65
2022/12/10 06:11:32;;;;;;;;;;;;;;;5.90;63.72;94066.22;5061721;28;20484;-65
2022/12/10 06:13:58;;;;;;;;;;;;;;;5.60;64.38;94060.56;5043348;28;20100;-65
2022/12/10 06:16:24;;;;;;;;;;;;;;;5.83;63.78;94058.69;5076457;22;20120;-70
2022/12/10 06:18:50;;;;;;;;;;;;;;;6.09;63.47;94048.34;5075716;28;20142;-71
2022/12/10 06:21:16;;;;;;;;;;;;;;;6.04;62.68;94045.03;5090382;28;20107;-70
2022/12/10 06:23:42;;;;;;;;;;;;;;;6.10;61.82;94046.50;5084479;28;20484;-70
2022/12/10 06:26:12;;;;;;;;;;;;;;;6.23;62.23;94045.63;5090264;28;20108;-71
2022/12/10 06:28:37;;;;;;;;;;;;;;;6.14;62.00;94044.78;5079656;28;20119;-70
2022/12/10 06:31:03;;;;;;;;;;;;;;;6.07;63.00;94044.44;5082468;28;20146;-70
2022/12/10 06:33:28;;;;;;;;;;;;;;;6.23;62.31;94049.03;5088058;28;20020;-71
2022/12/10 06:35:53;;;;;;;;;;;;;;;6.17;61.79;94050.25;5088728;28;20013;-70
2022/12/10 06:38:19;;;;;;;;;;;;;;;6.21;62.16;94053.06;5085005;28;20017;-70
2022/12/10 06:40:46;;;;;;;;;;;;;;;6.31;62.31;94047.53;5086602;28;20525;-70
2022/12/10 06:43:11;;;;;;;;;;;;;;;6.02;62.36;94058.53;5090439;28;20116;-69
2022/12/10 06:45:39;;;;;;;;;;;;;;;5.99;62.39;94061.81;5075443;28;20017;-70
2022/12/10 06:48:07;;;;;;;;;;;;;;;5.96;62.44;94057.13;5075072;28;20031;-70
2022/12/10 06:50:33;;;;;;;;;;;;;;;5.90;62.47;94058.28;5088459;28;20396;-69
2022/12/10 06:52:58;;;;;;;;;;;;;;;5.66;62.24;94055.94;5094820;28;20071;-69
2022/12/10 06:55:24;;;;;;;;;;;;;;;5.58;63.71;94057.44;5093860;28;20472;-70
2022/12/10 06:57:52;;;;;;;;;;;;;;;5.61;62.51;94048.13;5077097;28;20137;-69
2022/12/10 07:00:17;;;;;;;;;;;;;;;5.76;62.96;94049.66;5073965;28;20103;-69
2022/12/10 07:02:43;;;;;;;;;;;;;;;5.59;62.73;94053.72;5071459;28;20109;-71
2022/12/10 07:05:08;;;;;;;;;;;;;;;5.71;62.30;94053.97;5073791;28;20021;-69
2022/12/10 07:07:34;;;;;;;;;;;;;;;5.91;61.83;94060.66;5075344;28;20016;-69
2022/12/10 07:10:00;;;;;;;;;;;;;;;6.11;62.42;94055.97;5074594;28;20017;-70
2022/12/10 07:12:25;;;;;;;;;;;;;;;6.12;61.86;94060.16;5075604;28;20017;-70
2022/12/10 07:14:50;;;;;;;;;;;;;;;6.36;61.31;94059.84;5092172;28;20074;-70
2022/12/10 07:17:15;;;;;;;;;;;;;;;6.35;61.52;94051.13;5076511;28;20021;-70
2022/12/10 07:19:41;;;;;;;;;;;;;;;6.41;61.44;94059.72;5076285;28;20373;-70
2022/12/10 07:22:06;;;;;;;;;;;;;;;6.40;61.13;94058.94;5080213;28;20481;-70
2022/12/10 07:24:31;;;;;;;;;;;;;;;6.30;59.74;94069.75;5074654;28;20017;-70
2022/12/10 07:26:56;;;;;;;;;;;;;;;6.32;60.55;94070.22;5086301;28;20016;-70
2022/12/10 07:29:22;;;;;;;;;;;;;;;6.47;60.15;94071.69;5077972;28;20028;-70
2022/12/10 07:31:48;;;;;;;;;;;;;;;6.54;59.96;94079.97;5087432;28;20032;-69
2022/12/10 07:34:13;;;;;;;;;;;;;;;6.62;61.00;94076.59;5096789;28;20036;-68
2022/12/10 07:36:38;;;;;;;;;;;;;;;6.74;59.64;94076.78;5093595;28;20468;-68
2022/12/10 07:39:07;;;;;;;;;;;;;;;6.83;60.13;94078.69;5088541;28;20477;-69
2022/12/10 07:41:33;;;;;;;;;;;;;;;6.89;60.18;94072.16;5075565;28;20009;-69
2022/12/10 07:43:58;;;;;;;;;;;;;;;6.64;58.29;94077.06;5094954;28;20019;-68
2022/12/10 07:46:24;;;;;;;;;;;;;;;6.61;57.98;94072.38;5094214;28;20236;-69
2022/12/10 07:48:50;;;;;;;;;;;;;;;6.72;58.65;94072.91;5099183;28;20021;-69
2022/12/10 07:51:16;;;;;;;;;;;;;;;6.66;57.74;94061.69;5094495;28;20023;-68
2022/12/10 07:53:42;;;;;;;;;;;;;;;6.69;58.31;94068.97;5089231;28;20064;-71
2022/12/10 07:56:07;;;;;;;;;;;;;;;6.80;58.94;94064.19;5089903;28;20040;-68
2022/12/10 07:58:33;;;;;;;;;;;;;;;6.89;59.33;94072.94;5089076;28;20024;-70
2022/12/10 08:00:58;;;;;;;;;;;;;;;6.14;59.99;94074.63;5084809;28;20017;-69
2022/12/10 08:03:23;;;;;;;;;;;;;;;5.96;58.70;94078.22;5074199;28;20017;-71
2022/12/10 08:05:59;;;;;;;;;;;;;;;6.40;59.15;94066.84;5076880;28;20023;-72
2022/12/10 08:08:24;;;;;;;;;;;;;;;6.67;60.04;94071.16;5092721;28;20020;-70
2022/12/10 08:10:50;;;;;;;;;;;;;;;6.53;58.93;94067.84;5080245;28;20024;-71
2022/12/10 08:13:15;;;;;;;;;;;;;;;6.67;58.50;94068.53;5091558;28;20407;-72
2022/12/10 08:15:40;;;;;;;;;;;;;;;5.20;61.49;94070.91;5087198;28;20056;-71
2022/12/10 08:18:05;;;;;;;;;;;;;;;5.59;61.39;94074.03;5088514;28;20027;-70
2022/12/10 08:20:30;;;;;;;;;;;;;;;4.58;63.41;94078.44;5072591;28;20012;-69
2022/12/10 08:22:56;;;;;;;;;;;;;;;3.91;65.34;94088.53;5086066;28;20683;-68
2022/12/10 08:25:21;;;;;;;;;;;;;;;4.17;64.36;94094.19;5080639;28;20052;-68
2022/12/10 08:27:46;;;;;;;;;;;;;;;4.83;63.44;94086.94;5092680;28;20012;-72
2022/12/10 08:30:11;;;;;;;;;;;;;;;4.00;64.66;94091.31;5078826;28;20108;-70
2022/12/10 08:32:37;;;;;;;;;;;;;;;5.10;63.14;94096.69;5071983;28;20013;-70
2022/12/10 08:35:02;;;;;;;;;;;;;;;5.16;62.28;94096.28;5070127;28;20024;-68
2022/12/10 08:37:27;;;;;;;;;;;;;;;3.51;67.04;94095.19;5071816;28;20062;-68
2022/12/10 08:39:52;;;;;;;;;;;;;;;2.84;69.76;94090.78;5071500;28;20017;-68
2022/12/10 08:42:17;;;;;;;;;;;;;;;2.72;70.88;94087.78;5070502;28;20063;-68
2022/12/10 08:44:43;;;;;;;;;;;;;;;3.24;68.49;94087.94;5071855;28;20107;-68
2022/12/10 08:47:08;;;;;;;;;;;;;;;3.24;68.88;94101.09;5071772;28;20477;-69
2022/12/10 08:49:33;;;;;;;;;;;;;;;3.11;70.31;94095.44;5071280;28;20017;-69
2022/12/10 08:51:58;;;;;;;;;;;;;;;3.65;68.29;94096.81;5071679;28;20136;-68
2022/12/10 08:54:24;;;;;;;;;;;;;;;3.81;67.92;94096.59;5071493;28;20009;-68
2022/12/10 08:56:49;;;;;;;;;;;;;;;4.60;65.91;94094.72;5071771;28;20060;-68
2022/12/10 08:59:14;;;;;;;;;;;;;;;4.44;64.84;94098.72;5069998;28;20032;-69
2022/12/10 09:01:39;;;;;;;;;;;;;;;4.78;64.00;94097.59;5071492;28;20096;-68
2022/12/10 09:04:04;;;;;;;;;;;;;;;5.15;62.77;94107.13;5071559;28;20020;-68
2022/12/10 09:06:30;;;;;;;;;;;;;;;5.21;63.03;94106.72;5070149;28;20018;-69
2022/12/10 09:08:55;;;;;;;;;;;;;;;4.99;64.02;94109.28;5071332;28;20542;-68
2022/12/10 09:11:25;;;;;;;;;;;;;;;4.58;64.70;94104.78;5070268;28;20443;-68
2022/12/10 09:13:51;;;;;;;;;;;;;;;4.31;64.38;94113.44;5072321;28;20013;-68
2022/12/10 09:16:17;;;;;;;;;;;;;;;5.12;63.48;94108.50;5070920;28;20016;-69
2022/12/10 09:18:42;;;;;;;;;;;;;;;5.16;62.40;94109.47;5070466;28;20013;-68
2022/12/10 09:21:08;;;;;;;;;;;;;;;4.44;63.23;94110.03;5070852;28;20028;-68
2022/12/10 09:23:34;;;;;;;;;;;;;;;5.10;62.49;94120.41;5071161;28;20100;-67
2022/12/10 09:25:59;;;;;;;;;;;;;;;5.81;61.73;94115.50;5069814;28;20059;-68
2022/12/10 09:28:25;;;;;;;;;;;;;;;5.82;60.95;94119.69;5070154;28;20028;-68
2022/12/10 09:30:57;;;;;;;;;;;;;;;5.96;60.04;94123.88;5071019;28;20055;-67
2022/12/10 09:33:22;;;;;;;;;;;;;;;5.81;60.33;94116.28;5070732;28;20049;-69
2022/12/10 09:35:47;;;;;;;;;;;;;;;4.71;62.63;94119.06;5069076;28;20071;-68
2022/12/10 09:38:12;;;;;;;;;;;;;;;4.78;63.56;94121.28;5068782;28;20021;-68
2022/12/10 09:40:50;;;;;;;;;;;;;;;5.11;63.41;94122.75;5070390;28;20097;-68
2022/12/10 09:43:27;;;;;;;;;;;;;;;5.46;62.97;94125.75;5071112;28;20012;-68
2022/12/10 09:45:52;;;;;;;;;;;;;;;5.94;61.36;94122.63;5069674;28;20038;-69
2022/12/10 09:48:32;;;;;;;;;;;;;;;6.27;60.83;94120.53;5068812;28;20021;-68
2022/12/10 09:51:03;;;;;;;;;;;;;;;5.82;60.06;94123.09;5070472;28;20009;-68
2022/12/10 09:53:29;;;;;;;;;;;;;;;5.31;61.38;94128.69;5070489;28;20008;-68
2022/12/10 09:55:55;;;;;;;;;;;;;;;5.42;61.86;94130.03;5070262;28;20115;-68
2022/12/10 09:58:23;;;;;;;;;;;;;;;5.19;62.32;94132.63;5068790;28;20115;-69
2022/12/10 10:00:55;;;;;;;;;;;;;;;4.74;63.14;94128.22;5070300;28;20009;-68
2022/12/10 10:03:21;;;;;;;;;;;;;;;4.07;66.38;94118.03;5068830;28;20017;-68
2022/12/10 10:05:48;;;;;;;;;;;;;;;4.11;66.43;94125.06;5068864;28;20024;-68
2022/12/10 10:08:19;;;;;;;;;;;;;;;3.94;66.80;94127.41;5068159;28;20021;-69
2022/12/10 10:10:45;;;;;;;;;;;;;;;4.27;66.11;94122.19;5068876;28;20147;-68
2022/12/10 10:13:29;;;;;;;;;;;;;;;4.49;65.55;94116.28;5069274;28;20051;-68
2022/12/10 10:15:54;;;;;;;;;;;;;;;4.38;65.17;94108.56;5068862;28;20645;-68
2022/12/10 10:18:32;;;;;;;;;;;;;;;4.81;64.44;94120.69;5068312;28;20009;-68
2022/12/10 10:20:59;;;;;;;;;;;;;;;4.62;64.86;94113.66;5070020;28;20017;-68
2022/12/10 10:23:24;;;;;;;;;;;;;;;4.95;64.02;94117.00;5069806;28;20009;-68
2022/12/10 10:25:49;;;;;;;;;;;;;;;5.00;63.91;94117.97;5068237;28;20166;-69
2022/12/10 10:28:20;;;;;;;;;;;;;;;4.90;63.64;94118.94;5067817;28;20070;-68
2022/12/10 10:30:45;;;;;;;;;;;;;;;4.51;64.76;94114.94;5068527;28;20020;-69
2022/12/10 10:33:12;;;;;;;;;;;;;;;5.37;63.55;94115.09;5070088;28;20040;-68
2022/12/10 10:35:48;;;;;;;;;;;;;;;4.45;65.12;94118.69;5068542;28;20547;-68
2022/12/10 10:38:17;;;;;;;;;;;;;;;4.02;66.87;94110.22;5069212;28;20107;-68
2022/12/10 10:40:44;;;;;;;;;;;;;;;4.77;65.40;94109.97;5068271;28;20503;-68
2022/12/10 10:43:20;;;;;;;;;;;;;;;5.21;65.41;94111.22;5070106;28;20009;-69
2022/12/10 10:46:06;;;;;;;;;;;;;;;5.30;64.89;94106.03;5069724;28;20510;-68
2022/12/10 10:48:31;;;;;;;;;;;;;;;5.47;64.97;94109.63;5067822;28;20098;-68
2022/12/10 10:51:12;;;;;;;;;;;;;;;4.61;65.07;94103.44;5069732;28;20441;-69
2022/12/10 10:53:47;;;;;;;;;;;;;;;5.41;66.17;94096.84;5070035;28;20009;-68
2022/12/10 10:56:17;;;;;;;;;;;;;;;5.49;65.11;94106.69;5068358;28;20013;-68
2022/12/10 10:59:06;;;;;;;;;;;;;;;4.81;65.53;94110.16;5068085;28;20013;-68
2022/12/10 11:01:43;;;;;;;;;;;;;;;5.19;65.75;94114.16;5031932;28;20014;-68
2022/12/10 11:04:08;;;;;;;;;;;;;;;5.65;66.43;94099.22;5069965;28;20016;-68
2022/12/10 11:06:33;;;;;;;;;;;;;;;4.19;66.20;94105.19;5068136;28;20013;-68
2022/12/10 11:08:59;;;;;;;;;;;;;;;4.10;68.32;94099.81;5069317;28;20071;-68
2022/12/10 11:11:35;;;;;;;;;;;;;;;4.26;67.64;94096.94;5069689;28;20107;-68
2022/12/10 11:14:19;;;;;;;;;;;;;;;4.43;67.88;94092.66;5066095;28;20013;-68
2022/12/10 11:16:44;;;;;;;;;;;;;;;3.39;70.11;94101.66;5068235;28;20028;-68
2022/12/10 11:19:18;;;;;;;;;;;;;;;4.29;68.15;94099.75;5067751;28;20013;-68
2022/12/10 11:21:43;;;;;;;;;;;;;;;5.18;67.04;94096.78;5069743;28;20119;-68
2022/12/10 11:24:12;;;;;;;;;;;;;;;4.41;66.92;94099.31;5068379;28;20099;-68
2022/12/10 11:26:43;;;;;;;;;;;;;;;3.82;67.78;94093.66;5069294;28;20019;-69
2022/12/10 11:29:23;;;;;;;;;;;;;;;3.41;70.27;94092.69;5070458;28;20032;-69
2022/12/10 11:32:00;;;;;;;;;;;;;;;4.16;68.92;94084.72;5073391;28;20009;-69
2022/12/10 11:34:29;;;;;;;;;;;;;;;2.84;71.95;94096.03;5072965;28;20004;-69
2022/12/10 11:37:09;;;;;;;;;;;;;;;3.10;72.30;94091.25;5073051;28;20021;-69
2022/12/10 11:39:51;;;;;;;;;;;;;;;4.35;70.20;94082.00;5072655;28;20107;-69
2022/12/10 11:42:24;;;;;;;;;;;;;;;4.74;69.22;94086.06;5071477;28;20049;-69
2022/12/10 11:44:56;;;;;;;;;;;;;;;4.30;68.79;94084.72;5071776;28;20496;-70
2022/12/10 11:47:32;;;;;;;;;;;;;;;5.15;68.06;94080.78;5072942;28;20588;-69
2022/12/10 11:50:20;;;;;;;;;;;;;;;4.48;67.56;94083.13;5072430;28;20646;-69
2022/12/10 11:53:11;;;;;;;;;;;;;;;4.47;68.29;94092.88;5072526;28;20013;-68
2022/12/10 11:55:36;;;;;;;;;;;;;;;4.24;68.91;94088.53;5072391;28;20014;-69
2022/12/10 11:58:20;;;;;;;;;;;;;;;4.15;69.06;94089.22;5072534;28;20020;-69
2022/12/10 12:01:00;;;;;;;;;;;;;;;4.78;67.07;94095.72;5072608;28;20058;-69
2022/12/10 12:03:34;;;;;;;;;;;;;;;3.96;69.17;94103.47;5072631;28;20103;-69
2022/12/10 12:05:59;;;;;;;;;;;;;;;3.23;70.62;94104.78;5073142;28;20016;-68
2022/12/10 12:08:27;;;;;;;;;;;;;;;3.47;70.35;94107.34;5071893;28;20013;-69
2022/12/10 12:10:52;;;;;;;;;;;;;;;3.86;70.45;94099.16;5072460;28;20052;-69
2022/12/10 12:13:20;;;;;;;;;;;;;;;2.84;72.26;94111.78;5071411;28;20074;-69
2022/12/10 12:15:51;;;;;;;;;;;;;;;2.88;72.08;94103.38;5072420;28;20423;-69
2022/12/10 12:18:35;;;;;;;;;;;;;;;2.64;73.20;94109.38;5070550;28;20523;-69
2022/12/10 12:21:07;;;;;;;;;;;;;;;2.89;72.28;94105.69;5071160;28;20024;-69
2022/12/10 12:23:54;;;;;;;;;;;;;;;3.47;72.12;94102.84;5070961;28;20039;-70
2022/12/10 12:26:26;;;;;;;;;;;;;;;2.12;74.70;94107.53;5070598;28;20020;-68
2022/12/10 12:29:10;;;;;;;;;;;;;;;2.81;74.67;94111.56;5070479;28;20028;-69
2022/12/10 12:31:37;;;;;;;;;;;;;;;3.75;71.80;94103.78;5070940;28;20468;-69
2022/12/10 12:34:05;;;;;;;;;;;;;;;3.92;70.46;94106.66;5070620;28;20020;-69
2022/12/10 12:36:34;;;;;;;;;;;;;;;4.12;70.01;94117.94;5071522;28;20009;-69
2022/12/10 12:39:06;;;;;;;;;;;;;;;4.63;69.14;94115.22;5069790;28;20040;-69
2022/12/10 12:41:39;;;;;;;;;;;;;;;4.24;69.01;94114.84;5070279;28;20066;-69
2022/12/10 12:44:11;;;;;;;;;;;;;;;4.85;68.40;94121.69;5071824;28;20051;-70
2022/12/10 12:46:42;;;;;;;;;;;;;;;5.04;67.97;94130.28;5071441;28;20014;-69
2022/12/10 12:49:24;;;;;;;;;;;;;;;3.97;68.76;94129.50;5069799;28;20056;-69
2022/12/10 12:51:59;;;;;;;;;;;;;;;3.82;69.41;94137.59;5071994;28;20010;-70
2022/12/10 12:54:25;;;;;;;;;;;;;;;3.40;69.95;94136.59;5071528;28;20012;-68
2022/12/10 12:56:55;;;;;;;;;;;;;;;3.36;70.61;94135.59;5071443;28;20013;-70
2022/12/10 12:59:26;;;;;;;;;;;;;;;3.57;70.45;94138.75;5071133;28;20468;-69
2022/12/10 13:02:01;;;;;;;;;;;;;;;4.12;70.12;94142.41;5071399;28;20084;-69
2022/12/10 13:04:26;;;;;;;;;;;;;;;4.14;70.19;94148.16;5071157;28;20004;-67
2022/12/10 13:07:09;;;;;;;;;;;;;;;4.25;69.34;94148.00;5071069;28;20059;-68
2022/12/10 13:09:42;;;;;;;;;;;;;;;2.98;72.06;94153.16;5070529;28;20048;-68
2022/12/10 13:12:13;;;;;;;;;;;;;;;3.26;72.02;94156.75;5071399;28;20550;-68
2022/12/10 13:14:54;;;;;;;;;;;;;;;3.60;72.56;94160.00;5071174;28;20012;-69
2022/12/10 13:17:30;;;;;;;;;;;;;;;3.17;72.88;94158.44;5071125;28;20616;-69